createdAt,value
2018-12-13T00:00:13.691Z,68.42
2018-12-13T00:00:48.276Z,68.71
2018-12-13T00:01:22.869Z,67.72
2018-12-13T00:01:57.978Z,67.94
2018-12-13T00:02:32.568Z,68.20
2018-12-13T00:03:07.186Z,67.92
2018-12-13T00:03:41.804Z,68.39
2018-12-13T00:04:16.414Z,68.35
2018-12-13T00:04:50.988Z,67.97
2018-12-13T00:05:25.737Z,68.48
2018-12-13T00:06:00.378Z,68.23
2018-12-13T00:06:34.957Z,68.59
2018-12-13T00:07:09.653Z,67.97
2018-12-13T00:07:44.298Z,68.42
2018-12-13T00:08:18.879Z,68.22
2018-12-13T00:08:53.520Z,68.49
2018-12-13T00:09:28.094Z,68.53
2018-12-13T00:10:02.678Z,69.06
2018-12-13T00:10:37.384Z,68.47
2018-12-13T00:11:11.994Z,68.21
2018-12-13T00:11:46.575Z,68.68
2018-12-13T00:12:21.242Z,68.96
2018-12-13T00:12:55.849Z,68.47
2018-12-13T00:13:30.513Z,68.73
2018-12-13T00:14:05.103Z,68.51
2018-12-13T00:14:39.701Z,69.01
2018-12-13T00:15:14.401Z,69.10
2018-12-13T00:15:48.993Z,68.72
2018-12-13T00:16:23.688Z,68.34
2018-12-13T00:16:58.268Z,68.94
2018-12-13T00:17:32.940Z,69.01
2018-12-13T00:18:07.529Z,68.27
2018-12-13T00:18:42.110Z,69.20
2018-12-13T00:19:16.796Z,68.59
2018-12-13T00:19:51.422Z,68.76
2018-12-13T00:20:26.024Z,68.55
2018-12-13T00:21:01.223Z,69.06
2018-12-13T00:21:35.806Z,68.68
2018-12-13T00:22:10.428Z,69.08
2018-12-13T00:22:45.082Z,68.97
2018-12-13T00:23:19.665Z,69.26
2018-12-13T00:23:54.249Z,69.27
2018-12-13T00:24:28.821Z,69.49
2018-12-13T00:25:03.456Z,69.54
2018-12-13T00:25:38.048Z,69.06
2018-12-13T00:26:12.705Z,69.81
2018-12-13T00:26:47.376Z,68.68
2018-12-13T00:27:21.977Z,69.39
2018-12-13T00:27:56.557Z,69.37
2018-12-13T00:28:31.238Z,69.68
2018-12-13T00:29:05.851Z,69.47
2018-12-13T00:29:40.449Z,69.91
2018-12-13T00:30:15.038Z,68.99
2018-12-13T00:30:49.628Z,69.03
2018-12-13T00:31:24.217Z,69.53
2018-12-13T00:31:58.846Z,70.12
2018-12-13T00:32:33.436Z,69.20
2018-12-13T00:33:08.488Z,69.25
2018-12-13T00:33:43.068Z,69.26
2018-12-13T00:34:17.757Z,69.97
2018-12-13T00:34:52.806Z,69.47
2018-12-13T00:35:27.454Z,70.06
2018-12-13T00:36:02.049Z,69.73
2018-12-13T00:36:39.699Z,69.43
2018-12-13T00:37:13.221Z,70.07
2018-12-13T00:37:47.808Z,70.59
2018-12-13T00:38:22.365Z,70.08
2018-12-13T00:38:56.920Z,70.24
2018-12-13T00:39:31.486Z,69.76
2018-12-13T00:40:06.973Z,69.96
2018-12-13T00:40:41.626Z,70.59
2018-12-13T00:41:16.619Z,70.06
2018-12-13T00:41:51.729Z,70.16
2018-12-13T00:42:26.328Z,70.44
2018-12-13T00:43:00.893Z,70.35
2018-12-13T00:43:35.465Z,70.02
2018-12-13T00:44:10.050Z,70.22
2018-12-13T00:44:44.648Z,70.96
2018-12-13T00:45:19.229Z,70.26
2018-12-13T00:45:53.884Z,70.58
2018-12-13T00:46:28.490Z,70.37
2018-12-13T00:47:03.232Z,70.70
2018-12-13T00:47:37.812Z,70.90
2018-12-13T00:48:12.441Z,70.37
2018-12-13T00:48:47.037Z,70.07
2018-12-13T00:49:21.616Z,70.14
2018-12-13T00:49:56.272Z,70.23
2018-12-13T00:50:30.893Z,70.31
2018-12-13T00:51:05.457Z,69.90
2018-12-13T00:51:40.118Z,70.26
2018-12-13T00:52:14.709Z,70.60
2018-12-13T00:52:49.312Z,70.33
2018-12-13T00:53:23.836Z,70.97
2018-12-13T00:53:58.426Z,70.28
2018-12-13T00:54:33.082Z,70.93
2018-12-13T00:55:08.168Z,71.05
2018-12-13T00:55:42.737Z,71.18
2018-12-13T00:56:17.348Z,70.85
2018-12-13T00:56:51.905Z,70.87
2018-12-13T00:57:26.594Z,71.63
2018-12-13T00:58:01.166Z,71.47
2018-12-13T00:58:35.725Z,70.99
2018-12-13T00:59:10.293Z,71.54
2018-12-13T00:59:44.882Z,71.34
2018-12-13T01:00:19.553Z,70.90
2018-12-13T01:00:56.149Z,70.94
2018-12-13T01:01:30.725Z,71.48
2018-12-13T01:02:05.818Z,70.95
2018-12-13T01:02:40.459Z,71.57
2018-12-13T01:03:15.070Z,71.30
2018-12-13T01:03:50.484Z,71.61
2018-12-13T01:04:25.050Z,71.59
2018-12-13T01:04:59.617Z,71.42
2018-12-13T01:05:34.560Z,70.43
2018-12-13T01:06:09.141Z,71.09
2018-12-13T01:06:46.090Z,71.01
2018-12-13T01:07:20.299Z,71.18
2018-12-13T01:07:54.869Z,70.84
2018-12-13T01:08:29.445Z,70.79
2018-12-13T01:09:06.135Z,71.21
2018-12-13T01:09:40.729Z,71.22
2018-12-13T01:10:15.292Z,70.28
2018-12-13T01:10:49.869Z,70.17
2018-12-13T01:11:24.450Z,70.21
2018-12-13T01:11:59.026Z,69.97
2018-12-13T01:12:34.085Z,70.71
2018-12-13T01:13:08.765Z,70.26
2018-12-13T01:13:43.786Z,70.98
2018-12-13T01:14:18.355Z,71.01
2018-12-13T01:14:52.959Z,70.80
2018-12-13T01:15:31.686Z,71.08
2018-12-13T01:16:09.017Z,71.22
2018-12-13T01:16:43.706Z,71.13
2018-12-13T01:17:18.927Z,71.23
2018-12-13T01:17:53.888Z,70.89
2018-12-13T01:18:29.173Z,71.07
2018-12-13T01:19:03.718Z,71.07
2018-12-13T01:19:38.418Z,71.21
2018-12-13T01:20:12.980Z,70.77
2018-12-13T01:20:47.610Z,70.70
2018-12-13T01:21:22.481Z,70.81
2018-12-13T01:21:57.971Z,70.29
2018-12-13T01:22:33.048Z,70.54
2018-12-13T01:23:07.759Z,70.93
2018-12-13T01:23:42.349Z,70.20
2018-12-13T01:24:16.956Z,70.93
2018-12-13T01:24:51.582Z,70.62
2018-12-13T01:25:26.152Z,70.53
2018-12-13T01:26:00.804Z,70.58
2018-12-13T01:26:35.414Z,70.37
2018-12-13T01:27:10.041Z,70.46
2018-12-13T01:27:44.648Z,70.68
2018-12-13T01:28:19.262Z,71.02
2018-12-13T01:28:55.754Z,70.89
2018-12-13T01:29:30.345Z,70.37
2018-12-13T01:30:05.382Z,71.06
2018-12-13T01:30:39.983Z,70.47
2018-12-13T01:31:14.551Z,70.56
2018-12-13T01:31:49.125Z,70.88
2018-12-13T01:32:23.733Z,70.94
2018-12-13T01:32:58.317Z,70.91
2018-12-13T01:33:32.889Z,71.16
2018-12-13T01:34:07.538Z,70.57
2018-12-13T01:34:42.116Z,70.83
2018-12-13T01:35:16.692Z,71.17
2018-12-13T01:35:51.302Z,70.50
2018-12-13T01:36:25.914Z,70.98
2018-12-13T01:37:00.492Z,71.28
2018-12-13T01:37:35.158Z,71.11
2018-12-13T01:38:09.745Z,70.65
2018-12-13T01:38:44.374Z,70.69
2018-12-13T01:39:18.989Z,70.69
2018-12-13T01:39:53.574Z,70.43
2018-12-13T01:40:28.157Z,70.76
2018-12-13T01:41:02.736Z,71.24
2018-12-13T01:41:37.348Z,71.38
2018-12-13T01:42:11.965Z,71.16
2018-12-13T01:42:46.568Z,71.54
2018-12-13T01:43:21.187Z,71.55
2018-12-13T01:43:55.794Z,71.54
2018-12-13T01:44:30.395Z,70.95
2018-12-13T01:45:06.011Z,71.43
2018-12-13T01:45:40.671Z,70.78
2018-12-13T01:46:15.253Z,70.99
2018-12-13T01:46:50.321Z,71.14
2018-12-13T01:47:24.912Z,71.50
2018-12-13T01:47:59.537Z,71.41
2018-12-13T01:48:34.152Z,71.45
2018-12-13T01:49:08.874Z,70.86
2018-12-13T01:49:43.669Z,71.24
2018-12-13T01:50:18.294Z,71.47
2018-12-13T01:50:52.876Z,71.42
2018-12-13T01:51:27.453Z,71.45
2018-12-13T01:52:02.139Z,71.24
2018-12-13T01:52:36.735Z,71.26
2018-12-13T01:53:11.317Z,70.93
2018-12-13T01:53:45.900Z,71.42
2018-12-13T01:54:20.489Z,70.96
2018-12-13T01:54:55.261Z,71.52
2018-12-13T01:55:30.402Z,71.52
2018-12-13T01:56:05.455Z,71.28
2018-12-13T01:56:40.064Z,70.90
2018-12-13T01:57:14.682Z,71.73
2018-12-13T01:57:49.340Z,71.13
2018-12-13T01:58:24.026Z,71.11
2018-12-13T01:58:58.638Z,71.70
2018-12-13T01:59:33.248Z,71.16
2018-12-13T02:00:09.210Z,70.85
2018-12-13T02:00:43.816Z,70.88
2018-12-13T02:01:18.405Z,71.50
2018-12-13T02:01:53.072Z,71.12
2018-12-13T02:02:27.773Z,70.73
2018-12-13T02:03:02.378Z,70.60
2018-12-13T02:03:36.966Z,70.60
2018-12-13T02:04:11.582Z,70.50
2018-12-13T02:04:46.165Z,71.45
2018-12-13T02:05:20.830Z,71.14
2018-12-13T02:05:55.436Z,71.23
2018-12-13T02:06:30.494Z,70.85
2018-12-13T02:07:05.186Z,70.77
2018-12-13T02:07:39.801Z,70.18
2018-12-13T02:08:14.483Z,70.61
2018-12-13T02:08:49.150Z,70.16
2018-12-13T02:09:23.722Z,70.39
2018-12-13T02:09:58.323Z,70.01
2018-12-13T02:10:33.088Z,70.58
2018-12-13T02:11:07.695Z,70.17
2018-12-13T02:11:42.404Z,69.97
2018-12-13T02:12:17.020Z,70.38
2018-12-13T02:12:51.629Z,70.44
2018-12-13T02:13:26.225Z,70.86
2018-12-13T02:14:01.393Z,69.83
2018-12-13T02:14:36.097Z,69.88
2018-12-13T02:15:11.200Z,70.41
2018-12-13T02:15:45.901Z,69.87
2018-12-13T02:16:20.458Z,69.39
2018-12-13T02:16:55.054Z,69.57
2018-12-13T02:17:29.698Z,69.56
2018-12-13T02:18:04.778Z,69.13
2018-12-13T02:18:39.364Z,68.87
2018-12-13T02:19:13.925Z,69.34
2018-12-13T02:19:48.622Z,69.49
2018-12-13T02:20:24.115Z,69.45
2018-12-13T02:20:59.134Z,69.50
2018-12-13T02:21:33.746Z,69.35
2018-12-13T02:22:08.509Z,69.40
2018-12-13T02:22:43.100Z,68.99
2018-12-13T02:23:18.050Z,69.49
2018-12-13T02:23:52.678Z,69.74
2018-12-13T02:24:27.318Z,69.33
2018-12-13T02:25:02.030Z,69.16
2018-12-13T02:25:36.638Z,69.14
2018-12-13T02:26:11.344Z,68.58
2018-12-13T02:26:45.994Z,68.77
2018-12-13T02:27:20.586Z,68.34
2018-12-13T02:27:56.182Z,68.53
2018-12-13T02:28:31.194Z,68.75
2018-12-13T02:29:05.776Z,69.11
2018-12-13T02:29:40.412Z,68.97
2018-12-13T02:30:18.538Z,68.93
2018-12-13T02:30:53.360Z,68.51
2018-12-13T02:31:27.954Z,68.42
2018-12-13T02:32:02.564Z,68.41
2018-12-13T02:32:37.182Z,68.19
2018-12-13T02:33:11.756Z,68.27
2018-12-13T02:33:46.375Z,68.63
2018-12-13T02:34:20.953Z,68.27
2018-12-13T02:34:55.542Z,68.08
2018-12-13T02:35:30.165Z,68.07
2018-12-13T02:36:05.048Z,68.68
2018-12-13T02:36:40.082Z,67.74
2018-12-13T02:37:14.779Z,67.93
2018-12-13T02:37:49.381Z,67.50
2018-12-13T02:38:23.990Z,68.02
2018-12-13T02:38:58.572Z,67.94
2018-12-13T02:39:33.214Z,67.90
2018-12-13T02:40:08.448Z,67.85
2018-12-13T02:40:43.061Z,68.04
2018-12-13T02:41:18.155Z,68.58
2018-12-13T02:41:52.765Z,68.23
2018-12-13T02:42:27.349Z,68.67
2018-12-13T02:43:02.279Z,68.54
2018-12-13T02:43:36.836Z,69.06
2018-12-13T02:44:11.474Z,69.00
2018-12-13T02:44:46.120Z,68.10
2018-12-13T02:45:20.743Z,68.76
2018-12-13T02:45:55.730Z,68.15
2018-12-13T02:46:30.508Z,68.07
2018-12-13T02:47:05.598Z,68.15
2018-12-13T02:47:40.318Z,68.12
2018-12-13T02:48:15.774Z,68.51
2018-12-13T02:48:57.110Z,68.45
2018-12-13T02:49:32.352Z,67.81
2018-12-13T02:50:07.980Z,68.24
2018-12-13T02:50:42.619Z,68.62
2018-12-13T02:51:17.237Z,69.24
2018-12-13T02:51:51.886Z,68.52
2018-12-13T02:52:26.523Z,68.73
2018-12-13T02:53:01.228Z,68.94
2018-12-13T02:53:35.949Z,69.30
2018-12-13T02:54:10.581Z,69.53
2018-12-13T02:54:45.202Z,68.97
2018-12-13T02:55:19.909Z,69.45
2018-12-13T02:55:54.523Z,69.10
2018-12-13T02:56:29.134Z,69.27
2018-12-13T02:57:03.766Z,68.92
2018-12-13T02:57:38.801Z,68.93
2018-12-13T02:58:13.631Z,68.62
2018-12-13T02:58:48.265Z,68.83
2018-12-13T02:59:22.871Z,68.77
2018-12-13T02:59:57.610Z,69.02
2018-12-13T03:00:32.854Z,68.72
2018-12-13T03:01:07.467Z,68.97
2018-12-13T03:01:43.024Z,68.67
2018-12-13T03:02:17.695Z,69.06
2018-12-13T03:02:52.269Z,68.73
2018-12-13T03:03:27.001Z,68.39
2018-12-13T03:04:01.606Z,69.16
2018-12-13T03:04:36.575Z,69.25
2018-12-13T03:05:11.705Z,69.09
2018-12-13T03:05:46.331Z,69.01
2018-12-13T03:06:20.925Z,68.84
2018-12-13T03:06:55.698Z,69.42
2018-12-13T03:07:30.815Z,69.80
2018-12-13T03:08:05.410Z,69.55
2018-12-13T03:08:40.046Z,69.22
2018-12-13T03:09:14.637Z,69.38
2018-12-13T03:09:49.218Z,69.12
2018-12-13T03:10:23.804Z,69.07
2018-12-13T03:10:58.890Z,68.87
2018-12-13T03:11:33.498Z,69.29
2018-12-13T03:12:08.890Z,69.58
2018-12-13T03:12:43.517Z,69.83
2018-12-13T03:13:18.150Z,68.66
2018-12-13T03:13:52.773Z,69.38
2018-12-13T03:14:27.364Z,69.60
2018-12-13T03:15:03.356Z,68.88
2018-12-13T03:15:38.077Z,69.07
2018-12-13T03:16:12.988Z,69.67
2018-12-13T03:16:47.896Z,69.12
2018-12-13T03:17:23.393Z,68.79
2018-12-13T03:17:59.424Z,69.07
2018-12-13T03:18:34.189Z,69.22
2018-12-13T03:19:09.912Z,69.03
2018-12-13T03:19:44.874Z,69.74
2018-12-13T03:20:19.599Z,69.41
2018-12-13T03:20:54.298Z,69.56
2018-12-13T03:21:28.947Z,69.58
2018-12-13T03:22:04.637Z,70.10
2018-12-13T03:22:39.706Z,70.14
2018-12-13T03:23:14.448Z,69.85
2018-12-13T03:23:57.201Z,69.85
2018-12-13T03:24:31.833Z,69.31
2018-12-13T03:25:07.239Z,69.78
2018-12-13T03:25:42.138Z,69.43
2018-12-13T03:26:16.801Z,69.20
2018-12-13T03:26:51.776Z,69.53
2018-12-13T03:27:26.866Z,69.45
2018-12-13T03:28:01.469Z,69.61
2018-12-13T03:28:36.103Z,69.68
2018-12-13T03:29:10.859Z,69.52
2018-12-13T03:29:47.678Z,70.38
2018-12-13T03:30:22.369Z,69.89
2018-12-13T03:30:56.981Z,69.99
2018-12-13T03:31:31.986Z,70.38
2018-12-13T03:32:06.728Z,69.84
2018-12-13T03:32:42.623Z,70.38
2018-12-13T03:33:17.839Z,69.81
2018-12-13T03:33:52.409Z,70.16
2018-12-13T03:34:27.044Z,69.72
2018-12-13T03:35:01.655Z,70.16
2018-12-13T03:35:36.251Z,70.13
2018-12-13T03:36:11.287Z,70.64
2018-12-13T03:36:46.009Z,70.80
2018-12-13T03:37:21.102Z,70.80
2018-12-13T03:37:56.245Z,70.30
2018-12-13T03:38:30.897Z,70.49
2018-12-13T03:39:08.305Z,70.30
2018-12-13T03:39:43.353Z,70.70
2018-12-13T03:40:17.994Z,71.02
2018-12-13T03:40:52.610Z,70.88
2018-12-13T03:41:27.213Z,70.62
2018-12-13T03:42:01.774Z,70.20
2018-12-13T03:42:36.346Z,71.26
2018-12-13T03:43:11.004Z,70.78
2018-12-13T03:43:45.667Z,71.29
2018-12-13T03:44:20.209Z,70.88
2018-12-13T03:44:54.779Z,71.11
2018-12-13T03:45:29.332Z,70.92
2018-12-13T03:46:04.360Z,71.33
2018-12-13T03:46:39.055Z,71.03
2018-12-13T03:47:13.989Z,71.25
2018-12-13T03:47:48.568Z,71.62
2018-12-13T03:48:23.175Z,71.44
2018-12-13T03:48:57.781Z,71.62
2018-12-13T03:49:32.389Z,71.40
2018-12-13T03:50:07.809Z,71.65
2018-12-13T03:50:42.505Z,71.37
2018-12-13T03:51:17.387Z,71.42
2018-12-13T03:51:51.969Z,71.54
2018-12-13T03:52:26.633Z,71.83
2018-12-13T03:53:01.240Z,71.24
2018-12-13T03:53:36.276Z,71.89
2018-12-13T03:54:10.906Z,71.77
2018-12-13T03:54:45.516Z,71.83
2018-12-13T03:55:20.101Z,71.15
2018-12-13T03:55:54.722Z,71.83
2018-12-13T03:56:29.325Z,71.56
2018-12-13T03:57:04.257Z,71.13
2018-12-13T03:57:39.001Z,72.02
2018-12-13T03:58:13.901Z,71.86
2018-12-13T03:58:48.881Z,71.86
2018-12-13T03:59:23.583Z,72.04
2018-12-13T03:59:58.209Z,72.31
2018-12-13T04:00:33.089Z,71.89
2018-12-13T04:01:07.690Z,71.94
2018-12-13T04:01:42.474Z,72.67
2018-12-13T04:02:17.339Z,72.67
2018-12-13T04:02:52.012Z,72.42
2018-12-13T04:03:26.611Z,71.14
2018-12-13T04:04:01.210Z,71.71
2018-12-13T04:04:35.778Z,71.52
2018-12-13T04:05:10.432Z,71.61
2018-12-13T04:05:45.182Z,71.47
2018-12-13T04:06:19.774Z,71.52
2018-12-13T04:06:54.667Z,72.35
2018-12-13T04:07:29.493Z,71.95
2018-12-13T04:08:04.104Z,72.03
2018-12-13T04:08:38.748Z,72.53
2018-12-13T04:09:13.442Z,72.49
2018-12-13T04:09:48.367Z,72.06
2018-12-13T04:10:23.525Z,72.17
2018-12-13T04:10:58.135Z,72.59
2018-12-13T04:11:32.789Z,72.75
2018-12-13T04:12:07.388Z,72.24
2018-12-13T04:12:42.276Z,72.50
2018-12-13T04:13:16.907Z,72.81
2018-12-13T04:13:51.538Z,72.91
2018-12-13T04:14:26.227Z,72.94
2018-12-13T04:15:00.810Z,72.49
2018-12-13T04:15:35.988Z,72.51
2018-12-13T04:16:10.971Z,72.55
2018-12-13T04:16:45.664Z,72.29
2018-12-13T04:17:20.953Z,72.63
2018-12-13T04:17:56.010Z,72.52
2018-12-13T04:18:30.604Z,71.80
2018-12-13T04:19:05.266Z,72.29
2018-12-13T04:19:40.383Z,72.41
2018-12-13T04:20:14.987Z,72.00
2018-12-13T04:20:49.853Z,72.36
2018-12-13T04:21:24.435Z,72.43
2018-12-13T04:22:01.518Z,71.58
2018-12-13T04:22:36.069Z,71.83
2018-12-13T04:23:10.693Z,72.08
2018-12-13T04:23:45.316Z,72.08
2018-12-13T04:24:19.918Z,72.37
2018-12-13T04:24:54.864Z,72.34
2018-12-13T04:25:29.644Z,72.51
2018-12-13T04:26:04.314Z,72.33
2018-12-13T04:26:39.233Z,72.14
2018-12-13T04:27:13.980Z,72.58
2018-12-13T04:27:48.935Z,72.51
2018-12-13T04:28:23.706Z,72.74
2018-12-13T04:28:58.314Z,71.81
2018-12-13T04:29:32.916Z,72.36
2018-12-13T04:30:08.546Z,72.39
2018-12-13T04:30:43.264Z,72.10
2018-12-13T04:31:17.934Z,71.46
2018-12-13T04:31:52.490Z,71.43
2018-12-13T04:32:27.093Z,71.15
2018-12-13T04:33:01.714Z,71.29
2018-12-13T04:33:36.688Z,71.72
2018-12-13T04:34:11.414Z,71.60
2018-12-13T04:34:46.130Z,71.77
2018-12-13T04:35:20.710Z,71.72
2018-12-13T04:35:55.289Z,70.86
2018-12-13T04:36:29.876Z,71.11
2018-12-13T04:37:05.186Z,71.75
2018-12-13T04:37:40.274Z,71.50
2018-12-13T04:38:15.213Z,71.27
2018-12-13T04:38:49.857Z,71.32
2018-12-13T04:39:24.535Z,71.22
2018-12-13T04:39:59.122Z,71.02
2018-12-13T04:40:33.724Z,71.10
2018-12-13T04:41:08.421Z,71.15
2018-12-13T04:41:43.312Z,71.40
2018-12-13T04:42:18.237Z,71.92
2018-12-13T04:42:52.825Z,71.81
2018-12-13T04:43:27.876Z,71.68
2018-12-13T04:44:02.680Z,71.52
2018-12-13T04:44:37.965Z,71.37
2018-12-13T04:45:13.022Z,71.45
2018-12-13T04:45:47.678Z,71.61
2018-12-13T04:46:22.239Z,71.65
2018-12-13T04:46:56.827Z,72.33
2018-12-13T04:47:31.435Z,72.55
2018-12-13T04:48:06.077Z,71.96
2018-12-13T04:48:40.799Z,71.72
2018-12-13T04:49:15.477Z,71.66
2018-12-13T04:49:50.161Z,72.44
2018-12-13T04:50:24.770Z,71.93
2018-12-13T04:50:59.670Z,71.79
2018-12-13T04:51:34.252Z,71.93
2018-12-13T04:52:08.914Z,71.27
2018-12-13T04:52:43.560Z,71.43
2018-12-13T04:53:18.189Z,71.90
2018-12-13T04:53:52.774Z,71.68
2018-12-13T04:54:27.371Z,71.37
2018-12-13T04:55:02.017Z,71.93
2018-12-13T04:55:36.697Z,71.56
2018-12-13T04:56:12.642Z,71.23
2018-12-13T04:56:47.708Z,71.90
2018-12-13T04:57:22.275Z,72.02
2018-12-13T04:57:56.892Z,72.03
2018-12-13T04:58:31.751Z,71.49
2018-12-13T04:59:06.457Z,71.49
2018-12-13T04:59:41.114Z,71.56
2018-12-13T05:00:15.787Z,71.39
2018-12-13T05:00:50.406Z,71.94
2018-12-13T05:01:25.004Z,71.49
2018-12-13T05:01:59.589Z,71.75
2018-12-13T05:02:34.231Z,71.97
2018-12-13T05:03:09.058Z,71.55
2018-12-13T05:03:44.176Z,71.66
2018-12-13T05:04:18.932Z,72.31
2018-12-13T05:04:53.626Z,71.75
2018-12-13T05:05:28.193Z,72.23
2018-12-13T05:06:02.836Z,71.62
2018-12-13T05:06:38.244Z,71.85
2018-12-13T05:07:12.929Z,71.29
2018-12-13T05:07:48.091Z,71.16
2018-12-13T05:08:23.134Z,71.58
2018-12-13T05:08:57.730Z,71.30
2018-12-13T05:09:32.344Z,71.71
2018-12-13T05:10:07.787Z,71.79
2018-12-13T05:10:58.149Z,71.32
2018-12-13T05:11:32.737Z,71.62
2018-12-13T05:12:07.336Z,70.66
2018-12-13T05:12:42.003Z,71.09
2018-12-13T05:13:16.680Z,71.45
2018-12-13T05:13:51.335Z,71.23
2018-12-13T05:14:25.944Z,70.98
2018-12-13T05:15:00.673Z,71.25
2018-12-13T05:15:35.553Z,71.06
2018-12-13T05:16:10.491Z,71.29
2018-12-13T05:16:45.535Z,71.62
2018-12-13T05:17:20.438Z,71.04
2018-12-13T05:17:55.301Z,71.46
2018-12-13T05:18:30.220Z,71.38
2018-12-13T05:19:05.136Z,70.75
2018-12-13T05:19:40.016Z,71.48
2018-12-13T05:20:14.692Z,71.58
2018-12-13T05:20:49.709Z,71.30
2018-12-13T05:21:24.693Z,71.07
2018-12-13T05:21:59.562Z,71.00
2018-12-13T05:22:34.165Z,71.21
2018-12-13T05:23:09.742Z,71.53
2018-12-13T05:23:44.722Z,70.91
2018-12-13T05:24:19.642Z,71.07
2018-12-13T05:24:54.253Z,71.11
2018-12-13T05:25:29.145Z,71.52
2018-12-13T05:26:04.025Z,71.02
2018-12-13T05:26:38.691Z,71.12
2018-12-13T05:27:13.641Z,71.34
2018-12-13T05:27:48.373Z,71.30
2018-12-13T05:28:22.968Z,71.26
2018-12-13T05:28:57.862Z,70.77
2018-12-13T05:29:32.751Z,71.62
2018-12-13T05:30:08.000Z,71.63
2018-12-13T05:30:42.730Z,71.06
2018-12-13T05:31:17.392Z,71.64
2018-12-13T05:31:52.296Z,71.22
2018-12-13T05:32:27.312Z,71.24
2018-12-13T05:33:01.921Z,71.30
2018-12-13T05:33:36.948Z,71.41
2018-12-13T05:34:11.606Z,71.49
2018-12-13T05:34:46.272Z,71.07
2018-12-13T05:35:20.889Z,70.96
2018-12-13T05:35:55.490Z,71.01
2018-12-13T05:36:30.403Z,71.66
2018-12-13T05:37:05.036Z,71.99
2018-12-13T05:37:39.808Z,72.03
2018-12-13T05:38:14.744Z,71.60
2018-12-13T05:38:49.315Z,71.71
2018-12-13T05:39:23.980Z,72.60
2018-12-13T05:39:58.935Z,71.44
2018-12-13T05:40:34.230Z,71.13
2018-12-13T05:41:08.941Z,71.27
2018-12-13T05:41:44.178Z,71.46
2018-12-13T05:42:18.850Z,71.88
2018-12-13T05:42:53.438Z,71.68
2018-12-13T05:43:28.046Z,71.72
2018-12-13T05:44:02.895Z,71.12
2018-12-13T05:44:37.517Z,71.34
2018-12-13T05:45:12.256Z,71.22
2018-12-13T05:45:46.908Z,71.43
2018-12-13T05:46:21.582Z,71.48
2018-12-13T05:46:56.258Z,71.98
2018-12-13T05:47:30.834Z,71.24
2018-12-13T05:48:05.467Z,71.53
2018-12-13T05:48:40.165Z,72.09
2018-12-13T05:49:15.135Z,72.12
2018-12-13T05:49:49.736Z,72.19
2018-12-13T05:50:24.334Z,71.11
2018-12-13T05:50:59.885Z,71.63
2018-12-13T05:51:34.470Z,71.89
2018-12-13T05:52:09.533Z,72.03
2018-12-13T05:52:44.203Z,72.07
2018-12-13T05:53:18.834Z,72.07
2018-12-13T05:53:53.470Z,71.50
2018-12-13T05:54:28.065Z,72.02
2018-12-13T05:55:02.672Z,71.45
2018-12-13T05:55:37.321Z,72.29
2018-12-13T05:56:12.263Z,71.68
2018-12-13T05:56:46.966Z,72.27
2018-12-13T05:57:21.587Z,71.56
2018-12-13T05:57:56.279Z,72.31
2018-12-13T05:58:30.858Z,72.34
2018-12-13T05:59:05.523Z,71.67
2018-12-13T05:59:40.579Z,72.37
2018-12-13T06:00:15.920Z,71.66
2018-12-13T06:00:50.581Z,71.71
2018-12-13T06:01:25.186Z,72.46
2018-12-13T06:01:59.842Z,71.87
2018-12-13T06:02:34.732Z,72.39
2018-12-13T06:03:09.461Z,71.94
2018-12-13T06:03:44.516Z,72.55
2018-12-13T06:04:20.293Z,72.05
2018-12-13T06:04:55.269Z,72.45
2018-12-13T06:05:30.173Z,72.44
2018-12-13T06:06:04.776Z,72.78
2018-12-13T06:06:39.989Z,72.34
2018-12-13T06:07:14.694Z,72.46
2018-12-13T06:07:54.812Z,73.02
2018-12-13T06:08:26.215Z,72.94
2018-12-13T06:09:00.809Z,72.94
2018-12-13T06:09:35.451Z,72.74
2018-12-13T06:10:10.340Z,72.43
2018-12-13T06:10:45.402Z,72.05
2018-12-13T06:11:20.314Z,72.42
2018-12-13T06:11:54.883Z,72.80
2018-12-13T06:12:29.479Z,72.86
2018-12-13T06:13:04.453Z,72.68
2018-12-13T06:13:39.500Z,71.94
2018-12-13T06:14:14.254Z,71.92
2018-12-13T06:14:49.349Z,72.07
2018-12-13T06:15:24.095Z,72.60
2018-12-13T06:15:58.803Z,72.17
2018-12-13T06:16:33.387Z,72.04
2018-12-13T06:17:07.998Z,72.91
2018-12-13T06:17:42.699Z,72.95
2018-12-13T06:18:17.515Z,73.16
2018-12-13T06:18:52.254Z,73.09
2018-12-13T06:19:27.044Z,72.91
2018-12-13T06:20:01.871Z,72.40
2018-12-13T06:20:36.635Z,73.35
2018-12-13T06:21:11.959Z,72.66
2018-12-13T06:21:47.316Z,72.73
2018-12-13T06:22:22.320Z,72.08
2018-12-13T06:22:57.233Z,72.17
2018-12-13T06:23:31.916Z,72.76
2018-12-13T06:24:06.519Z,72.33
2018-12-13T06:24:41.275Z,72.65
2018-12-13T06:25:16.007Z,72.49
2018-12-13T06:25:50.649Z,71.99
2018-12-13T06:26:25.551Z,72.63
2018-12-13T06:27:00.311Z,72.60
2018-12-13T06:27:34.963Z,71.71
2018-12-13T06:28:09.679Z,71.64
2018-12-13T06:28:44.847Z,71.68
2018-12-13T06:29:19.513Z,71.84
2018-12-13T06:29:58.857Z,71.75
2018-12-13T06:30:30.806Z,71.74
2018-12-13T06:31:05.395Z,71.54
2018-12-13T06:31:40.137Z,71.36
2018-12-13T06:32:14.929Z,71.90
2018-12-13T06:32:49.598Z,72.19
2018-12-13T06:33:24.902Z,71.67
2018-12-13T06:34:00.092Z,71.80
2018-12-13T06:34:34.926Z,71.48
2018-12-13T06:35:10.169Z,71.97
2018-12-13T06:35:44.832Z,71.34
2018-12-13T06:36:19.460Z,71.46
2018-12-13T06:36:54.092Z,72.31
2018-12-13T06:37:28.706Z,71.48
2018-12-13T06:38:03.343Z,72.21
2018-12-13T06:38:38.442Z,72.26
2018-12-13T06:39:13.131Z,72.08
2018-12-13T06:39:47.832Z,71.97
2018-12-13T06:40:22.509Z,71.68
2018-12-13T06:40:57.119Z,71.44
2018-12-13T06:41:31.728Z,72.16
2018-12-13T06:42:06.326Z,71.45
2018-12-13T06:42:41.098Z,71.56
2018-12-13T06:43:15.832Z,71.93
2018-12-13T06:43:50.521Z,72.15
2018-12-13T06:44:25.204Z,71.43
2018-12-13T06:44:59.817Z,72.21
2018-12-13T06:45:34.428Z,71.34
2018-12-13T06:46:09.830Z,72.02
2018-12-13T06:46:44.497Z,71.49
2018-12-13T06:47:19.150Z,71.26
2018-12-13T06:47:53.777Z,71.27
2018-12-13T06:48:28.376Z,71.22
2018-12-13T06:49:03.025Z,71.78
2018-12-13T06:49:37.817Z,71.99
2018-12-13T06:50:12.586Z,71.64
2018-12-13T06:50:47.511Z,72.00
2018-12-13T06:51:22.110Z,72.21
2018-12-13T06:51:56.733Z,72.08
2018-12-13T06:52:31.329Z,71.31
2018-12-13T06:53:05.943Z,71.96
2018-12-13T06:53:40.758Z,71.15
2018-12-13T06:54:15.555Z,71.41
2018-12-13T06:54:50.185Z,72.12
2018-12-13T06:55:24.840Z,71.60
2018-12-13T06:55:59.442Z,71.66
2018-12-13T06:56:34.178Z,72.18
2018-12-13T06:57:08.978Z,71.86
2018-12-13T06:57:43.896Z,72.52
2018-12-13T06:58:18.525Z,72.27
2018-12-13T06:58:53.158Z,72.25
2018-12-13T06:59:28.083Z,71.84
2018-12-13T07:00:03.243Z,71.67
2018-12-13T07:00:38.037Z,72.58
2018-12-13T07:01:12.719Z,71.71
2018-12-13T07:01:47.419Z,71.71
2018-12-13T07:02:22.641Z,71.57
2018-12-13T07:02:57.616Z,71.67
2018-12-13T07:03:32.244Z,71.67
2018-12-13T07:04:06.908Z,71.78
2018-12-13T07:04:41.606Z,72.54
2018-12-13T07:05:16.318Z,71.90
2018-12-13T07:05:50.957Z,72.75
2018-12-13T07:06:26.470Z,71.71
2018-12-13T07:07:01.419Z,72.57
2018-12-13T07:07:36.029Z,72.45
2018-12-13T07:08:10.890Z,72.31
2018-12-13T07:08:45.583Z,72.40
2018-12-13T07:09:20.201Z,72.82
2018-12-13T07:09:55.138Z,72.00
2018-12-13T07:10:30.144Z,72.26
2018-12-13T07:11:04.794Z,72.87
2018-12-13T07:11:40.343Z,72.21
2018-12-13T07:12:15.362Z,72.87
2018-12-13T07:12:50.310Z,72.73
2018-12-13T07:13:25.225Z,72.20
2018-12-13T07:13:59.838Z,72.75
2018-12-13T07:14:34.743Z,72.35
2018-12-13T07:15:10.173Z,72.30
2018-12-13T07:15:45.262Z,73.06
2018-12-13T07:16:20.195Z,72.75
2018-12-13T07:16:55.183Z,72.47
2018-12-13T07:17:29.841Z,72.85
2018-12-13T07:18:05.042Z,72.35
2018-12-13T07:18:39.890Z,72.97
2018-12-13T07:19:14.729Z,72.36
2018-12-13T07:19:49.800Z,72.65
2018-12-13T07:20:26.231Z,71.99
2018-12-13T07:21:01.164Z,72.42
2018-12-13T07:21:35.807Z,72.16
2018-12-13T07:22:10.829Z,72.81
2018-12-13T07:22:45.711Z,72.32
2018-12-13T07:23:20.406Z,72.33
2018-12-13T07:23:55.817Z,72.91
2018-12-13T07:24:30.807Z,72.77
2018-12-13T07:25:06.026Z,72.76
2018-12-13T07:25:41.154Z,72.06
2018-12-13T07:26:15.802Z,72.87
2018-12-13T07:26:50.513Z,72.37
2018-12-13T07:27:25.190Z,72.15
2018-12-13T07:27:59.877Z,73.06
2018-12-13T07:28:34.496Z,72.15